Time;durP1;ratioP1;P1;durP2;ratioP2;P2;SDS_P1;SDS_P2;PMS_P1;PMS_P2;Temp;Humidity;BMP_temperature;BMP_pressure;BME280_temperature;BME280_humidity;BME280_pressure;Samples;Min_cycle;Max_cycle;Signal;HPM_P1;HPM_P2
2023/07/16 00:00:27;;;;;;;0.08;0.08;;;;;;;14.75;100.00;100751.94;5075289;28;20020;-50
2023/07/16 00:02:53;;;;;;;0.00;0.00;;;;;;;14.65;100.00;100760.47;5075983;28;20376;-49
2023/07/16 00:05:18;;;;;;;0.10;0.10;;;;;;;14.56;100.00;100756.00;5074593;28;20052;-48
2023/07/16 00:07:43;;;;;;;0.00;0.00;;;;;;;14.54;100.00;100760.34;5075105;28;20086;-50
2023/07/16 00:10:09;;;;;;;0.10;0.10;;;;;;;14.46;100.00;100755.06;5075380;28;20054;-48
2023/07/16 00:12:34;;;;;;;0.10;0.10;;;;;;;14.41;100.00;100764.50;5074237;28;20040;-48
2023/07/16 00:15:00;;;;;;;0.10;0.10;;;;;;;14.36;100.00;100767.88;5075238;28;20025;-48
2023/07/16 00:17:25;;;;;;;0.03;0.03;;;;;;;14.30;100.00;100764.34;5074880;28;20033;-49
2023/07/16 00:19:50;;;;;;;0.10;0.10;;;;;;;14.32;100.00;100762.66;5074733;28;20106;-48
2023/07/16 00:22:16;;;;;;;0.10;0.10;;;;;;;14.28;100.00;100768.66;5075307;28;20115;-50
2023/07/16 00:24:41;;;;;;;0.10;0.10;;;;;;;14.25;100.00;100775.50;5074783;28;20376;-47
2023/07/16 00:27:06;;;;;;;0.10;0.10;;;;;;;14.23;100.00;100769.44;5074345;28;20017;-48
2023/07/16 00:29:31;;;;;;;0.10;0.10;;;;;;;14.26;100.00;100772.06;5074827;28;20366;-50
2023/07/16 00:31:57;;;;;;;0.08;0.08;;;;;;;14.24;100.00;100769.47;5074891;28;20369;-49
2023/07/16 00:34:22;;;;;;;0.10;0.10;;;;;;;14.23;100.00;100777.19;5073721;28;20142;-46
2023/07/16 00:36:48;;;;;;;0.10;0.10;;;;;;;14.24;100.00;100766.00;5075021;28;20487;-49
2023/07/16 00:39:13;;;;;;;0.10;0.10;;;;;;;14.22;100.00;100770.31;5074830;28;20032;-45
2023/07/16 00:41:39;;;;;;;0.10;0.10;;;;;;;14.25;100.00;100767.75;5073501;28;20044;-47
2023/07/16 00:44:05;;;;;;;0.10;0.10;;;;;;;14.24;100.00;100773.75;5074925;28;20032;-49
2023/07/16 00:46:30;;;;;;;0.10;0.10;;;;;;;14.28;100.00;100780.72;5074407;28;20487;-49
2023/07/16 00:48:56;;;;;;;0.17;0.10;;;;;;;14.29;100.00;100782.47;5074034;28;20051;-48
2023/07/16 00:51:24;;;;;;;0.10;0.10;;;;;;;14.29;100.00;100772.09;5074784;28;20064;-48
2023/07/16 00:53:49;;;;;;;0.10;0.10;;;;;;;14.22;100.00;100776.34;5074749;28;20028;-47
2023/07/16 00:56:17;;;;;;;0.10;0.10;;;;;;;14.21;100.00;100771.16;5073678;28;20025;-49
2023/07/16 00:58:43;;;;;;;0.10;0.10;;;;;;;14.18;100.00;100778.84;5074165;28;20059;-47
2023/07/16 01:01:08;;;;;;;0.10;0.10;;;;;;;14.14;100.00;100767.59;5074234;28;20098;-46
2023/07/16 01:03:33;;;;;;;0.10;0.10;;;;;;;14.11;100.00;100768.44;5073504;28;20028;-48
2023/07/16 01:06:18;;;;;;;0.10;0.10;;;;;;;14.11;100.00;100772.72;5074230;28;20024;-48
2023/07/16 01:08:56;;;;;;;0.10;0.10;;;;;;;14.09;100.00;100780.50;5073349;28;20028;-46
2023/07/16 01:11:23;;;;;;;0.10;0.10;;;;;;;14.06;100.00;100785.63;5074164;28;20025;-46
2023/07/16 01:13:48;;;;;;;0.10;0.10;;;;;;;14.09;100.00;100780.50;5074097;28;20029;-47
2023/07/16 01:16:21;;;;;;;0.10;0.10;;;;;;;14.10;100.00;100771.88;5073421;28;20017;-49
2023/07/16 01:18:48;;;;;;;0.10;0.10;;;;;;;14.05;100.00;100770.94;5074097;28;20028;-47
2023/07/16 01:21:13;;;;;;;0.10;0.10;;;;;;;14.02;100.00;100765.72;5074098;28;20149;-49
2023/07/16 01:24:08;;;;;;;0.10;0.10;;;;;;;14.05;100.00;100770.06;5072871;28;20411;-49
2023/07/16 01:26:48;;;;;;;0.10;0.10;;;;;;;14.04;100.00;100766.59;5073640;28;20063;-48
2023/07/16 01:29:32;;;;;;;0.10;0.10;;;;;;;14.03;100.00;100761.41;5074081;28;20078;-48
2023/07/16 01:32:03;;;;;;;0.10;0.10;;;;;;;13.99;100.00;100757.88;5073630;28;20372;-48
2023/07/16 01:34:33;;;;;;;0.10;0.10;;;;;;;13.97;100.00;100767.38;5073312;28;20024;-50
2023/07/16 01:36:59;;;;;;;0.10;0.10;;;;;;;14.04;100.00;100760.56;5073417;28;20107;-48
2023/07/16 01:39:25;;;;;;;0.10;0.10;;;;;;;14.06;100.00;100769.19;5073582;28;20017;-49
2023/07/16 01:41:51;;;;;;;0.10;0.10;;;;;;;14.07;100.00;100769.25;5073465;28;20071;-49
2023/07/16 01:44:16;;;;;;;0.10;0.10;;;;;;;14.06;100.00;100764.91;5072838;28;20488;-46
2023/07/16 01:46:42;;;;;;;0.10;0.10;;;;;;;13.98;100.00;100764.81;5073275;28;20094;-47
2023/07/16 01:49:07;;;;;;;0.10;0.10;;;;;;;14.06;100.00;100769.19;5073413;28;20415;-51
2023/07/16 01:51:32;;;;;;;0.10;0.10;;;;;;;14.05;100.00;100770.94;5072088;28;20082;-48
2023/07/16 01:53:58;;;;;;;0.10;0.10;;;;;;;14.04;100.00;100768.34;5073523;28;20355;-48
2023/07/16 01:56:23;;;;;;;0.10;0.10;;;;;;;14.00;100.00;100770.84;5073012;28;20035;-49
2023/07/16 01:58:48;;;;;;;0.10;0.10;;;;;;;14.09;100.00;100770.13;5072490;28;20506;-49
2023/07/16 02:01:14;;;;;;;0.10;0.10;;;;;;;14.11;100.00;100771.03;5073030;28;20032;-48
2023/07/16 02:03:39;;;;;;;0.10;0.10;;;;;;;14.06;100.00;100764.91;5072948;28;20017;-49
2023/07/16 02:06:04;;;;;;;0.10;0.10;;;;;;;14.11;100.00;100767.53;5072605;28;20091;-48
2023/07/16 02:08:30;;;;;;;0.10;0.10;;;;;;;14.09;100.00;100764.94;5073080;28;20369;-49
2023/07/16 02:10:55;;;;;;;0.10;0.10;;;;;;;14.10;100.00;100764.09;5073269;28;20119;-50
2023/07/16 02:13:20;;;;;;;0.10;0.10;;;;;;;14.10;100.00;100766.69;5072475;28;20035;-46
2023/07/16 02:15:46;;;;;;;0.10;0.10;;;;;;;14.15;100.00;100765.03;5072659;28;20107;-48
2023/07/16 02:18:11;;;;;;;0.10;0.10;;;;;;;14.16;100.00;100766.78;5072971;28;20024;-48
2023/07/16 02:20:36;;;;;;;0.10;0.10;;;;;;;14.14;100.00;100762.44;5071738;28;20068;-48
2023/07/16 02:23:02;;;;;;;0.10;0.10;;;;;;;14.14;100.00;100767.59;5073271;28;20055;-45
2023/07/16 02:25:27;;;;;;;0.10;0.10;;;;;;;14.18;100.00;100773.69;5072882;28;20376;-45
2023/07/16 02:27:53;;;;;;;0.10;0.10;;;;;;;14.19;100.00;100767.66;5072265;28;20016;-50
2023/07/16 02:30:18;;;;;;;0.10;0.10;;;;;;;14.25;100.00;100776.38;5072968;28;20039;-49
2023/07/16 02:32:44;;;;;;;0.10;0.10;;;;;;;14.31;100.00;100778.19;5071809;28;20028;-48
2023/07/16 02:35:10;;;;;;;0.10;0.10;;;;;;;14.36;100.00;100788.59;5072875;28;20023;-50
2023/07/16 02:37:35;;;;;;;0.10;0.10;;;;;;;14.36;100.00;100784.31;5072517;28;20025;-50
2023/07/16 02:40:01;;;;;;;0.10;0.10;;;;;;;14.40;100.00;100785.22;5072067;28;20031;-49
2023/07/16 02:42:26;;;;;;;0.10;0.10;;;;;;;14.39;100.00;100784.34;5072175;28;20084;-50
2023/07/16 02:44:52;;;;;;;0.10;0.10;;;;;;;14.39;100.00;100789.53;5072811;28;20481;-50
2023/07/16 02:47:17;;;;;;;0.10;0.10;;;;;;;14.40;100.00;100788.69;5071879;28;20373;-49
2023/07/16 02:49:43;;;;;;;0.00;0.00;;;;;;;14.39;100.00;100791.25;5072673;28;20029;-48
2023/07/16 02:52:08;;;;;;;0.05;0.05;;;;;;;14.40;100.00;100795.59;5072942;28;20032;-49
2023/07/16 02:54:35;;;;;;;0.10;0.10;;;;;;;14.42;100.00;100794.78;5071709;28;20441;-49
2023/07/16 02:57:01;;;;;;;0.10;0.10;;;;;;;14.42;100.00;100793.88;5072828;28;20032;-49
2023/07/16 02:59:26;;;;;;;0.10;0.10;;;;;;;14.42;100.00;100789.59;5072384;28;20487;-48
2023/07/16 03:01:52;;;;;;;0.10;0.10;;;;;;;14.36;100.00;100797.28;5071637;28;20090;-49
2023/07/16 03:04:17;;;;;;;0.10;0.10;;;;;;;14.34;100.00;100801.56;5076312;28;20024;-50
2023/07/16 03:06:42;;;;;;;0.10;0.10;;;;;;;14.34;100.00;100796.38;5076504;28;20056;-47
2023/07/16 03:09:07;;;;;;;0.10;0.10;;;;;;;14.34;100.00;100801.56;5075923;28;20025;-50
2023/07/16 03:11:33;;;;;;;0.10;0.10;;;;;;;14.34;100.00;100798.97;5076349;28;20395;-50
2023/07/16 03:13:58;;;;;;;0.10;0.10;;;;;;;14.36;100.00;100802.47;5076488;28;20028;-45
2023/07/16 03:16:23;;;;;;;0.08;0.08;;;;;;;14.33;100.00;100805.00;5075373;28;20109;-49
2023/07/16 03:18:49;;;;;;;0.10;0.10;;;;;;;14.32;100.00;100805.88;5076321;28;20028;-46
2023/07/16 03:21:14;;;;;;;0.10;0.10;;;;;;;14.31;100.00;100811.91;5076150;28;20036;-49
2023/07/16 03:23:40;;;;;;;0.10;0.10;;;;;;;14.27;100.00;100813.56;5075280;28;20036;-50
2023/07/16 03:26:05;;;;;;;0.10;0.10;;;;;;;14.25;100.00;100817.00;5076336;28;20019;-49
2023/07/16 03:28:30;;;;;;;0.10;0.10;;;;;;;14.25;100.00;100811.81;5075977;28;20036;-49
2023/07/16 03:30:56;;;;;;;0.10;0.10;;;;;;;14.22;100.00;100816.97;5075445;28;20526;-48
2023/07/16 03:33:21;;;;;;;0.10;0.10;;;;;;;14.23;100.00;100818.69;5075872;28;20098;-46
2023/07/16 03:35:48;;;;;;;0.40;0.10;;;;;;;14.21;100.00;100815.22;5075567;28;20025;-48
2023/07/16 03:38:14;;;;;;;0.10;0.10;;;;;;;14.16;100.00;100816.03;5075034;28;20476;-46
2023/07/16 03:40:42;;;;;;;0.15;0.15;;;;;;;14.17;100.00;100822.06;5075313;28;20052;-50
2023/07/16 03:43:08;;;;;;;0.10;0.10;;;;;;;14.10;100.00;100823.69;5075112;28;20028;-48
2023/07/16 03:45:33;;;;;;;0.10;0.10;;;;;;;14.08;100.00;100825.38;5075832;28;20051;-49
2023/07/16 03:47:59;;;;;;;0.10;0.10;;;;;;;14.08;100.00;100833.16;5075644;28;20028;-49
2023/07/16 03:50:24;;;;;;;0.10;0.10;;;;;;;14.03;100.00;100837.41;5074551;28;20146;-47
2023/07/16 03:52:49;;;;;;;0.10;0.10;;;;;;;13.98;100.00;100839.06;5075830;28;20032;-48
2023/07/16 03:55:15;;;;;;;0.10;0.10;;;;;;;13.95;100.00;100839.03;5075777;28;20077;-47
2023/07/16 03:57:41;;;;;;;0.17;0.17;;;;;;;13.96;100.00;100844.22;5074452;28;20024;-49
2023/07/16 04:00:09;;;;;;;0.10;0.10;;;;;;;13.93;100.00;100854.53;5075575;28;20037;-48
2023/07/16 04:02:34;;;;;;;0.10;0.10;;;;;;;13.93;100.00;100853.66;5075029;28;20108;-50
2023/07/16 04:05:00;;;;;;;0.10;0.10;;;;;;;13.85;100.00;100852.69;5074814;28;20059;-48
2023/07/16 04:07:25;;;;;;;0.10;0.10;;;;;;;13.85;100.00;100852.69;5075125;28;20377;-46
2023/07/16 04:09:51;;;;;;;0.10;0.10;;;;;;;13.83;100.00;100866.47;5075491;28;20530;-50
2023/07/16 04:12:17;;;;;;;0.10;0.10;;;;;;;13.82;100.00;100856.94;5074614;28;20120;-49
2023/07/16 04:14:42;;;;;;;0.10;0.10;;;;;;;13.85;100.00;100863.03;5074552;28;20111;-50
2023/07/16 04:17:07;;;;;;;0.10;0.10;;;;;;;13.87;100.00;100862.22;5075291;28;20051;-48
2023/07/16 04:19:33;;;;;;;0.10;0.10;;;;;;;13.87;100.00;100863.94;5074305;28;20488;-50
2023/07/16 04:21:59;;;;;;;0.10;0.10;;;;;;;13.85;100.00;100865.63;5075291;28;20035;-46
2023/07/16 04:24:26;;;;;;;0.10;0.10;;;;;;;13.86;100.00;100876.00;5074877;28;20024;-50
2023/07/16 04:26:52;;;;;;;0.10;0.10;;;;;;;13.88;100.00;100873.44;5074712;28;20457;-49
2023/07/16 04:29:17;;;;;;;0.10;0.10;;;;;;;13.89;100.00;100878.66;5075101;28;20054;-49
2023/07/16 04:31:42;;;;;;;0.10;0.10;;;;;;;13.94;100.00;100881.31;5074622;28;20060;-46
2023/07/16 04:34:08;;;;;;;0.10;0.10;;;;;;;13.92;100.00;100886.47;5074380;28;20027;-44
2023/07/16 04:36:33;;;;;;;0.10;0.10;;;;;;;13.95;100.00;100888.25;5074722;28;20031;-49
2023/07/16 04:38:58;;;;;;;0.10;0.10;;;;;;;13.96;100.00;100892.59;5074970;28;20492;-50
2023/07/16 04:41:24;;;;;;;0.10;0.10;;;;;;;13.94;100.00;100900.34;5073485;28;20589;-47
2023/07/16 04:43:49;;;;;;;0.10;0.10;;;;;;;13.95;100.00;100906.38;5074690;28;20426;-44
2023/07/16 04:46:16;;;;;;;0.10;0.10;;;;;;;13.95;100.00;100902.06;5074584;28;20028;-48
2023/07/16 04:48:41;;;;;;;0.10;0.10;;;;;;;13.95;100.00;100907.25;5074192;28;20063;-46
2023/07/16 04:51:07;;;;;;;0.10;0.10;;;;;;;13.94;100.00;100904.63;5074573;28;20032;-47
2023/07/16 04:53:32;;;;;;;0.10;0.10;;;;;;;13.92;100.00;100914.13;5073694;28;20025;-47
2023/07/16 04:55:57;;;;;;;0.10;0.10;;;;;;;13.94;100.00;100920.19;5074629;28;20491;-49
2023/07/16 04:58:22;;;;;;;0.10;0.10;;;;;;;13.94;100.00;100912.41;5074223;28;20111;-45
2023/07/16 05:00:49;;;;;;;0.10;0.10;;;;;;;13.95;100.00;100919.34;5073557;28;20051;-50
2023/07/16 05:03:14;;;;;;;0.10;0.10;;;;;;;13.94;100.00;100920.19;5074571;28;20059;-46
2023/07/16 05:05:40;;;;;;;0.10;0.10;;;;;;;13.96;100.00;100923.69;5074076;28;20067;-48
2023/07/16 05:08:05;;;;;;;0.10;0.10;;;;;;;13.98;100.00;100930.63;5073684;28;20031;-47
2023/07/16 05:10:30;;;;;;;0.10;0.10;;;;;;;13.98;100.00;100921.97;5073930;28;20077;-47
2023/07/16 05:12:56;;;;;;;0.10;0.10;;;;;;;13.98;100.00;100914.19;5074255;28;20075;-45
2023/07/16 05:15:21;;;;;;;0.10;0.10;;;;;;;14.02;100.00;100917.72;5073310;28;20028;-50
2023/07/16 05:17:47;;;;;;;0.10;0.10;;;;;;;14.03;100.00;100922.91;5074177;28;20024;-46
2023/07/16 05:20:12;;;;;;;0.10;0.10;;;;;;;14.10;100.00;100917.00;5074326;28;20021;-49
2023/07/16 05:22:37;;;;;;;0.10;0.10;;;;;;;14.13;100.00;100924.81;5072936;28;20433;-49
2023/07/16 05:25:03;;;;;;;0.10;0.10;;;;;;;14.19;100.00;100930.94;5073349;28;20028;-47
2023/07/16 05:27:29;;;;;;;0.10;0.10;;;;;;;14.21;100.00;100929.25;5073549;28;20024;-48
2023/07/16 05:29:54;;;;;;;0.10;0.10;;;;;;;14.25;100.00;100925.88;5072998;28;20538;-48
2023/07/16 05:32:20;;;;;;;0.10;0.10;;;;;;;14.30;100.00;100934.59;5074002;28;20029;-50
2023/07/16 05:34:45;;;;;;;0.10;0.10;;;;;;;14.35;100.00;100938.13;5073624;28;20029;-50
2023/07/16 05:37:11;;;;;;;0.10;0.10;;;;;;;14.40;100.00;100935.63;5072796;28;20028;-47
2023/07/16 05:39:37;;;;;;;0.10;0.10;;;;;;;14.44;100.00;100940.00;5073470;28;20025;-50
2023/07/16 05:42:03;;;;;;;0.10;0.10;;;;;;;14.49;100.00;100944.38;5073385;28;20050;-49
2023/07/16 05:44:28;;;;;;;0.10;0.10;;;;;;;14.55;100.00;100945.31;5072365;28;20384;-49
2023/07/16 05:46:54;;;;;;;0.10;0.10;;;;;;;14.60;100.00;100946.25;5073748;28;20029;-50
2023/07/16 05:49:19;;;;;;;0.10;0.10;;;;;;;14.65;100.00;100940.34;5073462;28;20024;-50
2023/07/16 05:51:44;;;;;;;0.10;0.10;;;;;;;14.70;100.00;100955.09;5072539;28;20032;-49
2023/07/16 05:54:10;;;;;;;0.10;0.10;;;;;;;14.74;100.00;100952.56;5073585;28;20024;-49
2023/07/16 05:56:35;;;;;;;0.10;0.10;;;;;;;14.80;100.00;100957.84;5073034;28;20028;-45
2023/07/16 05:59:00;;;;;;;0.10;0.10;;;;;;;14.87;100.00;100955.34;5072720;28;20081;-49
2023/07/16 06:01:26;;;;;;;0.10;0.10;;;;;;;14.93;100.00;100958.00;5073170;28;20055;-48
2023/07/16 06:03:51;;;;;;;0.13;0.13;;;;;;;14.98;99.99;100956.34;5072851;28;20070;-46
2023/07/16 06:06:16;;;;;;;0.10;0.10;;;;;;;15.02;100.00;100963.31;5073304;28;20480;-48
2023/07/16 06:08:42;;;;;;;0.10;0.10;;;;;;;15.10;99.83;100968.63;5073082;28;20039;-45
2023/07/16 06:11:07;;;;;;;0.10;0.10;;;;;;;15.14;99.34;100968.69;5072655;28;20025;-47
2023/07/16 06:13:32;;;;;;;0.15;0.15;;;;;;;15.21;98.93;100972.22;5072950;28;20480;-46
2023/07/16 06:15:58;;;;;;;0.10;0.10;;;;;;;15.25;97.94;100978.34;5073113;28;20024;-46
2023/07/16 06:18:23;;;;;;;0.10;0.10;;;;;;;15.31;98.27;100975.78;5072263;28;20380;-49
2023/07/16 06:20:50;;;;;;;0.10;0.10;;;;;;;15.37;98.03;100975.00;5073020;28;20025;-50
2023/07/16 06:23:16;;;;;;;0.10;0.10;;;;;;;15.44;97.78;100976.81;5073050;28;20461;-48
2023/07/16 06:25:46;;;;;;;0.10;0.10;;;;;;;15.48;95.71;100970.81;5072057;28;20023;-45
2023/07/16 06:28:12;;;;;;;0.10;0.10;;;;;;;15.54;96.27;100977.78;5072895;28;20142;-48
2023/07/16 06:30:37;;;;;;;0.10;0.10;;;;;;;15.60;95.50;100983.06;5072916;28;20024;-46
2023/07/16 06:33:02;;;;;;;0.10;0.10;;;;;;;15.63;94.71;100975.28;5072368;28;20070;-48
2023/07/16 06:35:28;;;;;;;0.10;0.10;;;;;;;15.71;94.91;100981.47;5072389;28;20074;-49
2023/07/16 06:37:53;;;;;;;0.10;0.10;;;;;;;15.75;94.20;100991.03;5072637;28;20029;-48
2023/07/16 06:40:18;;;;;;;0.10;0.10;;;;;;;15.86;95.08;100985.09;5071957;28;20036;-47
2023/07/16 06:42:44;;;;;;;0.10;0.10;;;;;;;15.95;94.64;100995.56;5072260;28;20048;-45
2023/07/16 06:45:09;;;;;;;0.10;0.10;;;;;;;15.95;92.11;100985.19;5072952;28;20494;-48
2023/07/16 06:47:35;;;;;;;0.00;0.00;;;;;;;16.02;93.49;100993.91;5071752;28;20032;-47
2023/07/16 06:50:00;;;;;;;0.10;0.10;;;;;;;16.07;93.53;100998.28;5072848;28;20017;-48
2023/07/16 06:52:27;;;;;;;0.10;0.10;;;;;;;16.13;92.05;101003.53;5072425;28;20159;-46
2023/07/16 06:54:53;;;;;;;0.10;0.10;;;;;;;16.18;90.94;101013.09;5072008;28;20086;-47
2023/07/16 06:57:18;;;;;;;0.10;0.10;;;;;;;16.25;90.71;101014.91;5072568;28;20035;-48
2023/07/16 06:59:44;;;;;;;0.10;0.10;;;;;;;16.26;89.24;101001.06;5072689;28;20407;-47
2023/07/16 07:02:09;;;;;;;0.10;0.10;;;;;;;16.40;91.27;101009.84;5071786;28;20474;-49
2023/07/16 07:04:35;;;;;;;0.10;0.10;;;;;;;16.46;91.14;101015.09;5072508;28;20032;-44
2023/07/16 07:07:00;;;;;;;0.10;0.10;;;;;;;16.56;90.49;101017.78;5071971;28;20383;-47
2023/07/16 07:09:25;;;;;;;0.00;0.00;;;;;;;16.63;89.96;101020.44;5072293;28;20480;-48
2023/07/16 07:11:50;;;;;;;0.05;0.05;;;;;;;16.69;89.09;101027.41;5072472;28;20040;-47
2023/07/16 07:14:16;;;;;;;0.00;0.00;;;;;;;16.75;88.82;101027.44;5071596;28;20021;-46
2023/07/16 07:16:41;;;;;;;0.10;0.10;;;;;;;16.84;89.10;101031.00;5072180;28;20032;-50
2023/07/16 07:19:06;;;;;;;0.00;0.00;;;;;;;16.85;87.17;101027.50;5072488;28;20033;-45
2023/07/16 07:21:32;;;;;;;0.10;0.10;;;;;;;16.87;87.31;101039.66;5071273;28;20025;-46
2023/07/16 07:23:57;;;;;;;0.10;0.10;;;;;;;16.93;87.65;101037.16;5072730;28;20032;-46
2023/07/16 07:26:22;;;;;;;0.10;0.10;;;;;;;16.99;86.57;101044.16;5072233;28;20407;-45
2023/07/16 07:28:48;;;;;;;0.10;0.10;;;;;;;16.97;84.79;101030.22;5071511;28;20104;-47
2023/07/16 07:31:13;;;;;;;0.10;0.10;;;;;;;16.98;86.15;101039.78;5072539;28;20023;-48
2023/07/16 07:33:39;;;;;;;0.00;0.00;;;;;;;16.95;84.95;101044.97;5072115;28;20031;-44
2023/07/16 07:36:04;;;;;;;0.10;0.10;;;;;;;17.06;85.49;101039.84;5071687;28;20027;-44
2023/07/16 07:38:30;;;;;;;0.10;0.10;;;;;;;17.10;84.95;101047.66;5071789;28;20028;-48
2023/07/16 07:40:55;;;;;;;0.00;0.00;;;;;;;17.24;86.11;101041.69;5072021;28;20044;-44
2023/07/16 07:43:20;;;;;;;0.00;0.00;;;;;;;17.44;87.09;101041.75;5071330;28;20369;-49
2023/07/16 07:45:45;;;;;;;0.10;0.10;;;;;;;17.63;86.67;101045.31;5071714;28;20104;-44
2023/07/16 07:48:11;;;;;;;0.10;0.10;;;;;;;17.65;82.76;101047.91;5072989;28;20460;-47
2023/07/16 07:50:39;;;;;;;0.00;0.00;;;;;;;17.70;83.43;101052.28;5075141;28;20387;-45
2023/07/16 07:53:05;;;;;;;0.00;0.00;;;;;;;17.68;82.16;101059.22;5075788;28;20032;-43
2023/07/16 07:55:30;;;;;;;0.00;0.00;;;;;;;17.72;83.34;101050.53;5075340;28;20426;-45
2023/07/16 07:57:55;;;;;;;0.10;0.10;;;;;;;17.80;82.52;101045.34;5074763;28;20028;-47
2023/07/16 08:00:21;;;;;;;0.00;0.00;;;;;;;17.83;80.70;101041.88;5075823;28;20039;-44
2023/07/16 08:02:46;;;;;;;0.10;0.10;;;;;;;17.95;82.37;101052.41;5075352;28;20033;-44
2023/07/16 08:05:11;;;;;;;0.10;0.10;;;;;;;17.93;80.53;101048.91;5074795;28;20032;-48
2023/07/16 08:07:37;;;;;;;0.10;0.10;;;;;;;17.98;81.19;101052.38;5075198;28;20426;-45
2023/07/16 08:10:03;;;;;;;0.00;0.00;;;;;;;18.07;81.26;101060.22;5075414;28;20024;-44
2023/07/16 08:12:28;;;;;;;0.00;0.00;;;;;;;18.09;79.08;101045.47;5074103;28;20610;-42
2023/07/16 08:14:53;;;;;;;0.10;0.10;;;;;;;18.19;80.94;101053.28;5075494;28;20028;-43
2023/07/16 08:17:19;;;;;;;0.10;0.10;;;;;;;18.21;78.65;101048.97;5074644;28;20411;-47
2023/07/16 08:19:44;;;;;;;0.00;0.00;;;;;;;18.22;77.67;101050.72;5074866;28;20059;-43
2023/07/16 08:22:09;;;;;;;0.00;0.00;;;;;;;18.33;79.88;101048.97;5075191;28;20020;-43
2023/07/16 08:24:35;;;;;;;0.00;0.00;;;;;;;18.46;79.49;101060.28;5074113;28;20031;-43
2023/07/16 08:27:00;;;;;;;0.10;0.10;;;;;;;18.43;77.10;101061.13;5075089;28;20027;-45
2023/07/16 08:29:25;;;;;;;0.10;0.10;;;;;;;18.33;77.87;101056.78;5074954;28;20099;-46
2023/07/16 08:31:51;;;;;;;0.10;0.10;;;;;;;18.43;79.45;101055.06;5074229;28;20407;-46
2023/07/16 08:34:16;;;;;;;0.00;0.00;;;;;;;18.54;79.00;101055.06;5075322;28;20021;-46
2023/07/16 08:36:43;;;;;;;0.10;0.10;;;;;;;18.71;78.44;101057.69;5074528;28;20086;-48
2023/07/16 08:39:09;;;;;;;0.10;0.10;;;;;;;18.81;76.08;101066.34;5074105;28;20440;-45
2023/07/16 08:41:34;;;;;;;0.10;0.10;;;;;;;18.81;75.52;101054.19;5074183;28;20072;-46
2023/07/16 08:44:00;;;;;;;0.00;0.00;;;;;;;18.75;73.73;101072.47;5074689;28;20477;-48
2023/07/16 08:46:26;;;;;;;0.00;0.00;;;;;;;18.70;73.57;101072.47;5073887;28;20040;-45
2023/07/16 08:48:54;;;;;;;0.00;0.00;;;;;;;18.72;74.08;101069.84;5074714;28;20368;-45
2023/07/16 08:51:20;;;;;;;0.00;0.00;;;;;;;18.81;75.75;101061.13;5074881;28;20030;-48
2023/07/16 08:53:47;;;;;;;0.00;0.00;;;;;;;18.88;74.12;101082.03;5073587;28;20033;-46
2023/07/16 08:56:12;;;;;;;0.00;0.00;;;;;;;19.04;72.64;101075.09;5074404;28;20112;-47
2023/07/16 08:58:38;;;;;;;0.00;0.00;;;;;;;19.19;73.85;101078.53;5074100;28;20104;-45
2023/07/16 09:01:05;;;;;;;0.00;0.00;;;;;;;19.17;72.08;101075.94;5073710;28;20020;-49
2023/07/16 09:03:31;;;;;;;0.00;0.00;;;;;;;19.38;74.27;101074.97;5073948;28;20026;-45
2023/07/16 09:05:56;;;;;;;0.00;0.00;;;;;;;19.44;72.28;101084.53;5074624;28;20107;-48
2023/07/16 09:08:23;;;;;;;0.00;0.00;;;;;;;19.66;70.75;101080.09;5073390;28;20099;-47
2023/07/16 09:10:56;;;;;;;0.00;0.00;;;;;;;19.78;69.84;101100.09;5074328;28;20468;-46
2023/07/16 09:13:26;;;;;;;0.00;0.00;;;;;;;19.88;69.63;101095.72;5074298;28;20044;-48
2023/07/16 09:15:53;;;;;;;0.00;0.00;;;;;;;19.98;68.77;101086.09;5073443;28;20020;-49
2023/07/16 09:18:23;;;;;;;0.00;0.00;;;;;;;19.83;67.09;101098.38;5074155;28;20054;-45
2023/07/16 09:20:58;;;;;;;0.00;0.00;;;;;;;20.10;67.70;101100.84;5073102;28;20020;-45
2023/07/16 09:23:25;;;;;;;0.00;0.00;;;;;;;20.10;66.43;101095.59;5073676;28;20146;-46
2023/07/16 09:25:51;;;;;;;0.13;0.00;;;;;;;20.24;67.52;101099.00;5074106;28;20032;-47
2023/07/16 09:28:19;;;;;;;0.00;0.00;;;;;;;20.13;66.77;101106.03;5073206;28;20031;-46
2023/07/16 09:30:46;;;;;;;0.00;0.00;;;;;;;20.20;66.80;101103.38;5073585;28;20177;-46
2023/07/16 09:33:12;;;;;;;0.10;0.00;;;;;;;20.43;66.22;101106.75;5073852;28;20028;-48
2023/07/16 09:35:37;;;;;;;0.00;0.00;;;;;;;20.38;65.29;101107.63;5072721;28;20041;-45
2023/07/16 09:38:03;;;;;;;0.10;0.00;;;;;;;20.34;66.54;101105.06;5074180;28;20021;-44
2023/07/16 09:40:29;;;;;;;0.00;0.00;;;;;;;20.38;65.51;101107.63;5073440;28;20028;-44
2023/07/16 09:42:55;;;;;;;0.08;0.08;;;;;;;20.36;65.75;101100.66;5072978;28;20078;-46
2023/07/16 09:45:21;;;;;;;0.00;0.00;;;;;;;20.33;65.29;101108.53;5073541;28;20514;-46
2023/07/16 09:47:46;;;;;;;0.00;0.00;;;;;;;20.44;65.28;101108.47;5073175;28;20028;-44
2023/07/16 09:50:12;;;;;;;0.00;0.00;;;;;;;20.44;66.17;101116.31;5072654;28;20034;-48
2023/07/16 09:52:39;;;;;;;0.00;0.00;;;;;;;20.40;67.54;101110.25;5072976;28;20437;-46
2023/07/16 09:55:05;;;;;;;;;;;;;;;20.60;66.02;101123.19;5073938;28;20085;-44
2023/07/16 09:57:35;;;;;;;0.00;0.00;;;;;;;20.40;65.03;101121.59;5072270;28;20394;-44
2023/07/16 10:00:04;;;;;;;0.00;0.00;;;;;;;20.20;65.95;101128.69;5073419;28;20142;-48
2023/07/16 10:02:33;;;;;;;0.05;0.05;;;;;;;20.22;66.53;101121.72;5072960;28;20028;-47
2023/07/16 10:04:59;;;;;;;0.00;0.00;;;;;;;20.58;66.27;101134.56;5072285;28;20468;-49
2023/07/16 10:07:26;;;;;;;0.00;0.00;;;;;;;21.01;64.46;101129.84;5072796;28;20028;-47
2023/07/16 10:09:56;;;;;;;0.10;0.10;;;;;;;21.20;63.58;101130.56;5072525;28;20028;-45
2023/07/16 10:12:24;;;;;;;0.00;0.00;;;;;;;21.14;61.51;101135.00;5072929;28;20032;-45
2023/07/16 10:14:50;;;;;;;;;;;;;;;21.53;63.76;101132.81;5073504;28;20032;-47
2023/07/16 10:17:26;;;;;;;0.00;0.00;;;;;;;21.66;63.03;101139.69;5072179;28;20288;-50
2023/07/16 10:20:08;;;;;;;0.00;0.00;;;;;;;21.66;62.36;101144.94;5072984;28;20349;-48
2023/07/16 10:22:38;;;;;;;0.00;0.00;;;;;;;21.59;59.63;101137.16;5072479;28;20509;-43
2023/07/16 10:25:08;;;;;;;0.00;0.00;;;;;;;21.61;59.21;101151.13;5072274;28;20017;-46
2023/07/16 10:27:34;;;;;;;0.00;0.00;;;;;;;21.54;60.18;101159.06;5072770;28;20362;-43
2023/07/16 10:30:05;;;;;;;0.00;0.00;;;;;;;21.20;60.34;101161.13;5072841;28;20032;-43
2023/07/16 10:32:32;;;;;;;0.00;0.00;;;;;;;21.06;62.24;101161.28;5071966;28;20017;-44
2023/07/16 10:34:58;;;;;;;0.00;0.00;;;;;;;21.03;60.47;101162.16;5072951;28;20032;-43
2023/07/16 10:37:24;;;;;;;0.00;0.00;;;;;;;21.31;61.48;101167.13;5072623;28;20020;-42
2023/07/16 10:39:55;;;;;;;0.00;0.00;;;;;;;21.54;61.93;101155.56;5072003;28;20035;-46
2023/07/16 10:42:22;;;;;;;0.00;0.00;;;;;;;21.86;59.82;101155.19;5072400;28;20430;-42
2023/07/16 10:44:53;;;;;;;0.05;0.00;;;;;;;22.44;56.24;101159.69;5073039;28;20051;-47
2023/07/16 10:47:39;;;;;;;0.00;0.00;;;;;;;22.64;56.23;101160.25;5072143;28;20119;-44
2023/07/16 10:50:06;;;;;;;;;;;;;;;22.90;54.17;101152.84;5073230;28;20104;-42
2023/07/16 10:52:32;;;;;;;0.00;0.00;;;;;;;22.23;51.74;101153.81;5071656;28;19958;-43
2023/07/16 10:54:58;;;;;;;0.00;0.00;;;;;;;22.20;54.00;101153.88;5072654;28;20511;-43
2023/07/16 10:57:25;;;;;;;0.00;0.00;;;;;;;22.03;55.14;101165.47;5072538;28;20045;-47
2023/07/16 10:59:51;;;;;;;0.00;0.00;;;;;;;21.50;55.24;101183.56;5071977;28;20017;-48
2023/07/16 11:02:17;;;;;;;0.00;0.00;;;;;;;20.87;56.48;101160.56;5072711;28;20024;-43
2023/07/16 11:04:44;;;;;;;0.00;0.00;;;;;;;20.76;59.72;101170.25;5072338;28;20028;-46
2023/07/16 11:07:14;;;;;;;;;;;;;;;20.91;58.83;101180.59;5072130;28;20379;-44
2023/07/16 11:09:49;;;;;;;0.00;0.00;;;;;;;20.65;59.66;101179.00;5072042;28;20278;-42
2023/07/16 11:12:16;;;;;;;0.00;0.00;;;;;;;20.70;59.90;101182.50;5072741;28;20016;-42
2023/07/16 11:14:44;;;;;;;0.00;0.00;;;;;;;20.75;60.17;101194.69;5071495;28;20772;-44
2023/07/16 11:17:10;;;;;;;0.00;0.00;;;;;;;20.66;60.59;101195.63;5072646;28;20078;-47